sensor_id;sensor_type;location;lat;lon;timestamp;P1;durP1;ratioP1;P2;durP2;ratioP2
9819;SDS011;4949;48.482;9.206;2023-05-14T00:03:48;10.87;;;9.97;;
9819;SDS011;4949;48.482;9.206;2023-05-14T00:08:49;11.93;;;10.83;;
9819;SDS011;4949;48.482;9.206;2023-05-14T00:13:52;13.80;;;12.60;;
9819;SDS011;4949;48.482;9.206;2023-05-14T00:18:53;12.50;;;11.40;;
9819;SDS011;4949;48.482;9.206;2023-05-14T00:23:56;10.40;;;9.50;;
9819;SDS011;4949;48.482;9.206;2023-05-14T00:28:57;9.50;;;8.70;;
9819;SDS011;4949;48.482;9.206;2023-05-14T00:33:58;9.90;;;9.00;;
9819;SDS011;4949;48.482;9.206;2023-05-14T00:38:58;9.67;;;8.83;;
9819;SDS011;4949;48.482;9.206;2023-05-14T00:43:59;9.00;;;8.20;;
9819;SDS011;4949;48.482;9.206;2023-05-14T00:49:03;8.97;;;8.17;;
9819;SDS011;4949;48.482;9.206;2023-05-14T00:54:04;9.47;;;8.67;;
9819;SDS011;4949;48.482;9.206;2023-05-14T00:59:05;9.63;;;8.30;;
9819;SDS011;4949;48.482;9.206;2023-05-14T01:04:06;9.90;;;9.07;;
9819;SDS011;4949;48.482;9.206;2023-05-14T01:09:09;10.53;;;9.47;;
9819;SDS011;4949;48.482;9.206;2023-05-14T01:14:37;10.27;;;9.37;;
9819;SDS011;4949;48.482;9.206;2023-05-14T01:19:44;10.00;;;9.17;;
9819;SDS011;4949;48.482;9.206;2023-05-14T01:24:46;10.47;;;9.57;;
9819;SDS011;4949;48.482;9.206;2023-05-14T01:30:05;10.00;;;9.00;;
9819;SDS011;4949;48.482;9.206;2023-05-14T01:35:24;10.77;;;9.40;;
9819;SDS011;4949;48.482;9.206;2023-05-14T01:40:32;8.77;;;8.00;;
9819;SDS011;4949;48.482;9.206;2023-05-14T01:45:36;9.27;;;8.37;;
9819;SDS011;4949;48.482;9.206;2023-05-14T01:50:41;9.43;;;8.70;;
9819;SDS011;4949;48.482;9.206;2023-05-14T01:55:42;9.20;;;8.40;;
9819;SDS011;4949;48.482;9.206;2023-05-14T02:00:43;9.83;;;8.93;;
9819;SDS011;4949;48.482;9.206;2023-05-14T02:05:44;9.57;;;8.67;;
9819;SDS011;4949;48.482;9.206;2023-05-14T02:10:44;9.13;;;8.23;;
9819;SDS011;4949;48.482;9.206;2023-05-14T02:15:45;9.73;;;8.83;;
9819;SDS011;4949;48.482;9.206;2023-05-14T02:20:46;8.90;;;8.10;;
9819;SDS011;4949;48.482;9.206;2023-05-14T02:25:54;10.73;;;9.83;;
9819;SDS011;4949;48.482;9.206;2023-05-14T02:31:00;9.80;;;9.00;;
9819;SDS011;4949;48.482;9.206;2023-05-14T02:36:06;10.83;;;9.93;;
9819;SDS011;4949;48.482;9.206;2023-05-14T02:41:06;11.37;;;10.30;;
9819;SDS011;4949;48.482;9.206;2023-05-14T02:46:07;11.97;;;10.97;;
9819;SDS011;4949;48.482;9.206;2023-05-14T02:51:15;12.20;;;11.00;;
9819;SDS011;4949;48.482;9.206;2023-05-14T02:56:18;11.67;;;10.63;;
9819;SDS011;4949;48.482;9.206;2023-05-14T03:01:19;11.73;;;10.73;;
9819;SDS011;4949;48.482;9.206;2023-05-14T03:06:19;12.80;;;11.60;;
9819;SDS011;4949;48.482;9.206;2023-05-14T03:11:20;13.23;;;12.00;;
9819;SDS011;4949;48.482;9.206;2023-05-14T03:16:23;11.30;;;10.30;;
9819;SDS011;4949;48.482;9.206;2023-05-14T03:21:24;11.83;;;10.73;;
9819;SDS011;4949;48.482;9.206;2023-05-14T03:26:25;13.20;;;11.93;;
9819;SDS011;4949;48.482;9.206;2023-05-14T03:31:28;11.93;;;10.70;;
9819;SDS011;4949;48.482;9.206;2023-05-14T03:36:29;14.20;;;12.90;;
9819;SDS011;4949;48.482;9.206;2023-05-14T03:41:33;13.10;;;11.70;;
9819;SDS011;4949;48.482;9.206;2023-05-14T03:46:33;12.63;;;11.53;;
9819;SDS011;4949;48.482;9.206;2023-05-14T03:51:34;13.43;;;12.33;;
9819;SDS011;4949;48.482;9.206;2023-05-14T03:56:37;13.00;;;11.90;;
9819;SDS011;4949;48.482;9.206;2023-05-14T04:01:41;13.47;;;12.07;;
9819;SDS011;4949;48.482;9.206;2023-05-14T04:06:44;13.10;;;11.90;;
9819;SDS011;4949;48.482;9.206;2023-05-14T04:11:47;12.97;;;11.77;;
9819;SDS011;4949;48.482;9.206;2023-05-14T04:16:51;11.83;;;10.93;;
9819;SDS011;4949;48.482;9.206;2023-05-14T04:21:51;13.53;;;12.33;;
9819;SDS011;4949;48.482;9.206;2023-05-14T04:26:55;13.47;;;12.30;;
9819;SDS011;4949;48.482;9.206;2023-05-14T04:31:58;13.37;;;12.17;;
9819;SDS011;4949;48.482;9.206;2023-05-14T04:36:59;13.83;;;12.40;;
9819;SDS011;4949;48.482;9.206;2023-05-14T04:42:03;12.63;;;11.40;;
9819;SDS011;4949;48.482;9.206;2023-05-14T04:47:05;14.17;;;12.87;;
9819;SDS011;4949;48.482;9.206;2023-05-14T04:52:11;13.30;;;12.00;;
9819;SDS011;4949;48.482;9.206;2023-05-14T04:57:12;12.63;;;11.43;;
9819;SDS011;4949;48.482;9.206;2023-05-14T05:02:13;13.00;;;11.70;;
9819;SDS011;4949;48.482;9.206;2023-05-14T05:07:18;14.70;;;13.30;;
9819;SDS011;4949;48.482;9.206;2023-05-14T05:12:21;15.47;;;13.87;;
9819;SDS011;4949;48.482;9.206;2023-05-14T05:17:24;17.43;;;15.60;;
9819;SDS011;4949;48.482;9.206;2023-05-14T05:22:25;16.60;;;14.83;;
9819;SDS011;4949;48.482;9.206;2023-05-14T05:27:29;16.37;;;14.77;;
9819;SDS011;4949;48.482;9.206;2023-05-14T05:32:32;17.03;;;15.33;;
9819;SDS011;4949;48.482;9.206;2023-05-14T05:37:35;14.90;;;13.40;;
9819;SDS011;4949;48.482;9.206;2023-05-14T05:42:36;16.47;;;14.77;;
9819;SDS011;4949;48.482;9.206;2023-05-14T05:47:40;15.70;;;14.10;;
9819;SDS011;4949;48.482;9.206;2023-05-14T05:52:40;15.80;;;14.30;;
9819;SDS011;4949;48.482;9.206;2023-05-14T05:57:41;15.00;;;13.70;;
9819;SDS011;4949;48.482;9.206;2023-05-14T06:02:44;15.57;;;14.10;;
9819;SDS011;4949;48.482;9.206;2023-05-14T06:07:48;12.77;;;11.67;;
9819;SDS011;4949;48.482;9.206;2023-05-14T06:12:51;12.73;;;11.53;;
9819;SDS011;4949;48.482;9.206;2023-05-14T06:17:51;13.10;;;11.93;;
9819;SDS011;4949;48.482;9.206;2023-05-14T06:22:54;13.13;;;11.93;;
9819;SDS011;4949;48.482;9.206;2023-05-14T06:27:55;14.23;;;12.83;;
9819;SDS011;4949;48.482;9.206;2023-05-14T06:33:01;14.00;;;12.77;;
9819;SDS011;4949;48.482;9.206;2023-05-14T06:38:01;13.27;;;12.00;;
9819;SDS011;4949;48.482;9.206;2023-05-14T06:43:02;14.00;;;12.70;;
9819;SDS011;4949;48.482;9.206;2023-05-14T06:48:05;14.33;;;13.00;;
9819;SDS011;4949;48.482;9.206;2023-05-14T06:53:09;13.97;;;12.67;;
9819;SDS011;4949;48.482;9.206;2023-05-14T06:58:09;16.73;;;15.13;;
9819;SDS011;4949;48.482;9.206;2023-05-14T07:03:10;15.60;;;14.10;;
9819;SDS011;4949;48.482;9.206;2023-05-14T07:08:11;15.73;;;14.20;;
9819;SDS011;4949;48.482;9.206;2023-05-14T07:13:11;16.40;;;14.80;;
9819;SDS011;4949;48.482;9.206;2023-05-14T07:18:12;14.27;;;12.77;;
9819;SDS011;4949;48.482;9.206;2023-05-14T07:23:16;14.50;;;13.10;;
9819;SDS011;4949;48.482;9.206;2023-05-14T07:28:19;14.53;;;13.13;;
9819;SDS011;4949;48.482;9.206;2023-05-14T07:33:23;15.03;;;13.50;;
9819;SDS011;4949;48.482;9.206;2023-05-14T07:38:24;14.97;;;13.47;;
9819;SDS011;4949;48.482;9.206;2023-05-14T07:43:24;13.83;;;12.30;;
9819;SDS011;4949;48.482;9.206;2023-05-14T07:48:25;14.07;;;12.77;;
9819;SDS011;4949;48.482;9.206;2023-05-14T07:53:26;15.10;;;13.60;;
9819;SDS011;4949;48.482;9.206;2023-05-14T07:58:29;14.50;;;13.20;;
9819;SDS011;4949;48.482;9.206;2023-05-14T08:03:35;14.47;;;12.97;;
9819;SDS011;4949;48.482;9.206;2023-05-14T08:08:40;13.20;;;12.00;;
9819;SDS011;4949;48.482;9.206;2023-05-14T08:13:41;14.57;;;13.17;;
9819;SDS011;4949;48.482;9.206;2023-05-14T08:18:44;13.93;;;12.60;;
9819;SDS011;4949;48.482;9.206;2023-05-14T08:23:49;14.90;;;13.50;;
9819;SDS011;4949;48.482;9.206;2023-05-14T08:28:52;15.07;;;13.37;;
9819;SDS011;4949;48.482;9.206;2023-05-14T08:33:53;14.33;;;12.93;;
9819;SDS011;4949;48.482;9.206;2023-05-14T08:38:54;14.13;;;12.93;;
9819;SDS011;4949;48.482;9.206;2023-05-14T08:49:14;15.43;;;14.03;;
9819;SDS011;4949;48.482;9.206;2023-05-14T08:54:41;15.03;;;13.63;;
9819;SDS011;4949;48.482;9.206;2023-05-14T08:59:48;13.27;;;11.87;;
9819;SDS011;4949;48.482;9.206;2023-05-14T09:04:50;15.10;;;13.80;;
9819;SDS011;4949;48.482;9.206;2023-05-14T09:09:59;14.37;;;12.97;;
9819;SDS011;4949;48.482;9.206;2023-05-14T09:15:01;13.67;;;12.37;;
9819;SDS011;4949;48.482;9.206;2023-05-14T09:20:02;12.63;;;11.50;;
9819;SDS011;4949;48.482;9.206;2023-05-14T09:25:04;15.03;;;12.30;;
9819;SDS011;4949;48.482;9.206;2023-05-14T09:30:09;12.37;;;11.30;;
9819;SDS011;4949;48.482;9.206;2023-05-14T09:35:13;12.67;;;11.53;;
9819;SDS011;4949;48.482;9.206;2023-05-14T09:40:21;14.97;;;13.47;;
9819;SDS011;4949;48.482;9.206;2023-05-14T09:45:23;14.07;;;12.57;;
9819;SDS011;4949;48.482;9.206;2023-05-14T09:50:28;13.93;;;12.73;;
9819;SDS011;4949;48.482;9.206;2023-05-14T09:55:32;14.67;;;13.30;;
9819;SDS011;4949;48.482;9.206;2023-05-14T10:00:35;12.37;;;11.27;;
9819;SDS011;4949;48.482;9.206;2023-05-14T10:05:36;13.60;;;12.27;;
9819;SDS011;4949;48.482;9.206;2023-05-14T10:10:44;13.33;;;12.13;;
9819;SDS011;4949;48.482;9.206;2023-05-14T10:15:48;13.87;;;12.63;;
9819;SDS011;4949;48.482;9.206;2023-05-14T10:21:05;12.50;;;11.40;;
9819;SDS011;4949;48.482;9.206;2023-05-14T10:26:09;11.97;;;10.87;;
9819;SDS011;4949;48.482;9.206;2023-05-14T10:31:10;11.50;;;10.50;;
9819;SDS011;4949;48.482;9.206;2023-05-14T10:36:12;12.47;;;11.40;;
9819;SDS011;4949;48.482;9.206;2023-05-14T10:41:13;11.80;;;10.70;;
9819;SDS011;4949;48.482;9.206;2023-05-14T10:46:16;10.30;;;9.40;;
9819;SDS011;4949;48.482;9.206;2023-05-14T10:51:17;10.00;;;9.20;;
9819;SDS011;4949;48.482;9.206;2023-05-14T10:56:21;10.40;;;9.50;;
9819;SDS011;4949;48.482;9.206;2023-05-14T11:01:26;10.57;;;9.63;;
9819;SDS011;4949;48.482;9.206;2023-05-14T11:06:27;9.10;;;8.20;;
9819;SDS011;4949;48.482;9.206;2023-05-14T11:11:34;9.00;;;8.30;;
9819;SDS011;4949;48.482;9.206;2023-05-14T11:16:37;7.80;;;7.20;;
9819;SDS011;4949;48.482;9.206;2023-05-14T11:21:40;7.93;;;7.33;;
9819;SDS011;4949;48.482;9.206;2023-05-14T11:26:44;7.70;;;7.10;;
9819;SDS011;4949;48.482;9.206;2023-05-14T11:31:47;8.27;;;7.57;;
9819;SDS011;4949;48.482;9.206;2023-05-14T11:36:51;8.40;;;7.70;;
9819;SDS011;4949;48.482;9.206;2023-05-14T11:41:52;8.10;;;7.50;;
9819;SDS011;4949;48.482;9.206;2023-05-14T11:46:56;7.70;;;7.00;;
9819;SDS011;4949;48.482;9.206;2023-05-14T11:51:58;9.20;;;8.40;;
9819;SDS011;4949;48.482;9.206;2023-05-14T11:57:09;7.53;;;6.80;;
9819;SDS011;4949;48.482;9.206;2023-05-14T12:02:13;8.87;;;8.07;;
9819;SDS011;4949;48.482;9.206;2023-05-14T12:07:16;8.10;;;7.43;;
9819;SDS011;4949;48.482;9.206;2023-05-14T12:12:19;8.63;;;7.93;;
9819;SDS011;4949;48.482;9.206;2023-05-14T12:17:21;6.40;;;5.83;;
9819;SDS011;4949;48.482;9.206;2023-05-14T12:22:22;6.70;;;6.20;;
9819;SDS011;4949;48.482;9.206;2023-05-14T12:27:24;6.30;;;5.90;;
9819;SDS011;4949;48.482;9.206;2023-05-14T12:32:29;6.07;;;5.60;;
9819;SDS011;4949;48.482;9.206;2023-05-14T12:37:31;6.17;;;5.67;;
9819;SDS011;4949;48.482;9.206;2023-05-14T12:42:33;6.63;;;6.10;;
9819;SDS011;4949;48.482;9.206;2023-05-14T12:47:34;6.63;;;5.80;;
9819;SDS011;4949;48.482;9.206;2023-05-14T12:52:37;6.20;;;5.70;;
9819;SDS011;4949;48.482;9.206;2023-05-14T12:57:38;6.40;;;5.80;;
9819;SDS011;4949;48.482;9.206;2023-05-14T13:02:38;5.73;;;5.30;;
9819;SDS011;4949;48.482;9.206;2023-05-14T13:07:39;8.27;;;6.73;;
9819;SDS011;4949;48.482;9.206;2023-05-14T13:12:43;6.47;;;5.87;;
9819;SDS011;4949;48.482;9.206;2023-05-14T13:17:43;6.50;;;5.90;;
9819;SDS011;4949;48.482;9.206;2023-05-14T13:22:44;5.53;;;5.10;;
9819;SDS011;4949;48.482;9.206;2023-05-14T13:27:50;6.50;;;5.90;;
9819;SDS011;4949;48.482;9.206;2023-05-14T13:32:51;5.37;;;4.93;;
9819;SDS011;4949;48.482;9.206;2023-05-14T13:37:54;5.20;;;4.80;;
9819;SDS011;4949;48.482;9.206;2023-05-14T13:42:54;5.20;;;4.70;;
9819;SDS011;4949;48.482;9.206;2023-05-14T13:47:55;5.00;;;4.60;;
9819;SDS011;4949;48.482;9.206;2023-05-14T13:52:58;4.97;;;4.53;;
9819;SDS011;4949;48.482;9.206;2023-05-14T13:58:01;8.63;;;5.60;;
9819;SDS011;4949;48.482;9.206;2023-05-14T14:03:03;5.47;;;4.97;;
9819;SDS011;4949;48.482;9.206;2023-05-14T14:08:04;7.30;;;5.10;;
9819;SDS011;4949;48.482;9.206;2023-05-14T14:13:08;5.90;;;5.40;;
9819;SDS011;4949;48.482;9.206;2023-05-14T14:18:09;5.53;;;5.13;;
9819;SDS011;4949;48.482;9.206;2023-05-14T14:23:10;5.40;;;4.90;;
9819;SDS011;4949;48.482;9.206;2023-05-14T14:28:11;5.90;;;5.37;;
9819;SDS011;4949;48.482;9.206;2023-05-14T14:33:12;5.60;;;5.20;;
9819;SDS011;4949;48.482;9.206;2023-05-14T14:38:13;5.67;;;5.27;;
9819;SDS011;4949;48.482;9.206;2023-05-14T14:43:14;5.70;;;5.30;;
9819;SDS011;4949;48.482;9.206;2023-05-14T14:48:22;5.73;;;4.80;;
9819;SDS011;4949;48.482;9.206;2023-05-14T14:53:26;5.20;;;4.80;;
9819;SDS011;4949;48.482;9.206;2023-05-14T14:58:28;5.10;;;4.70;;
9819;SDS011;4949;48.482;9.206;2023-05-14T15:03:30;5.70;;;5.10;;
9819;SDS011;4949;48.482;9.206;2023-05-14T15:08:31;4.90;;;4.60;;
9819;SDS011;4949;48.482;9.206;2023-05-14T15:13:31;4.83;;;4.47;;
9819;SDS011;4949;48.482;9.206;2023-05-14T15:18:33;4.87;;;4.53;;
9819;SDS011;4949;48.482;9.206;2023-05-14T15:23:36;5.40;;;5.00;;
9819;SDS011;4949;48.482;9.206;2023-05-14T15:28:36;5.33;;;4.80;;
9819;SDS011;4949;48.482;9.206;2023-05-14T15:33:37;5.50;;;5.10;;
9819;SDS011;4949;48.482;9.206;2023-05-14T15:38:40;6.10;;;5.50;;
9819;SDS011;4949;48.482;9.206;2023-05-14T15:43:43;5.37;;;4.97;;
9819;SDS011;4949;48.482;9.206;2023-05-14T15:48:47;5.03;;;4.73;;
9819;SDS011;4949;48.482;9.206;2023-05-14T15:53:47;5.10;;;4.80;;
9819;SDS011;4949;48.482;9.206;2023-05-14T15:58:48;5.13;;;4.73;;
9819;SDS011;4949;48.482;9.206;2023-05-14T16:03:49;4.40;;;4.10;;
9819;SDS011;4949;48.482;9.206;2023-05-14T16:08:51;6.23;;;5.63;;
9819;SDS011;4949;48.482;9.206;2023-05-14T16:13:52;5.00;;;4.70;;
9819;SDS011;4949;48.482;9.206;2023-05-14T16:18:52;5.13;;;4.70;;
9819;SDS011;4949;48.482;9.206;2023-05-14T16:23:56;4.80;;;4.50;;
9819;SDS011;4949;48.482;9.206;2023-05-14T16:29:01;5.63;;;5.17;;
9819;SDS011;4949;48.482;9.206;2023-05-14T16:34:05;5.97;;;5.47;;
9819;SDS011;4949;48.482;9.206;2023-05-14T16:39:06;5.40;;;5.00;;
9819;SDS011;4949;48.482;9.206;2023-05-14T16:44:07;6.07;;;5.57;;
9819;SDS011;4949;48.482;9.206;2023-05-14T16:49:07;5.83;;;5.10;;
9819;SDS011;4949;48.482;9.206;2023-05-14T16:54:11;5.60;;;5.10;;
9819;SDS011;4949;48.482;9.206;2023-05-14T16:59:14;5.00;;;4.60;;
9819;SDS011;4949;48.482;9.206;2023-05-14T17:04:16;5.43;;;5.03;;
9819;SDS011;4949;48.482;9.206;2023-05-14T17:09:17;5.20;;;4.70;;
9819;SDS011;4949;48.482;9.206;2023-05-14T17:14:17;6.23;;;5.77;;
9819;SDS011;4949;48.482;9.206;2023-05-14T17:19:24;6.23;;;5.73;;
9819;SDS011;4949;48.482;9.206;2023-05-14T17:24:27;6.33;;;5.83;;
9819;SDS011;4949;48.482;9.206;2023-05-14T17:29:28;6.10;;;5.50;;
9819;SDS011;4949;48.482;9.206;2023-05-14T17:34:29;6.77;;;6.27;;
9819;SDS011;4949;48.482;9.206;2023-05-14T17:39:30;5.70;;;5.30;;
9819;SDS011;4949;48.482;9.206;2023-05-14T17:44:31;7.40;;;6.83;;
9819;SDS011;4949;48.482;9.206;2023-05-14T17:49:31;6.83;;;6.20;;
9819;SDS011;4949;48.482;9.206;2023-05-14T17:54:32;6.77;;;6.27;;
9819;SDS011;4949;48.482;9.206;2023-05-14T17:59:33;7.10;;;6.50;;
9819;SDS011;4949;48.482;9.206;2023-05-14T18:04:36;6.00;;;5.60;;
9819;SDS011;4949;48.482;9.206;2023-05-14T18:09:40;6.43;;;5.93;;
9819;SDS011;4949;48.482;9.206;2023-05-14T18:14:40;6.40;;;5.90;;
9819;SDS011;4949;48.482;9.206;2023-05-14T18:19:41;6.57;;;6.07;;
9819;SDS011;4949;48.482;9.206;2023-05-14T18:24:42;6.77;;;6.27;;
9819;SDS011;4949;48.482;9.206;2023-05-14T18:29:47;6.50;;;6.00;;
9819;SDS011;4949;48.482;9.206;2023-05-14T18:34:47;6.90;;;6.40;;
9819;SDS011;4949;48.482;9.206;2023-05-14T18:39:48;7.43;;;6.80;;
9819;SDS011;4949;48.482;9.206;2023-05-14T18:44:51;6.70;;;6.20;;
9819;SDS011;4949;48.482;9.206;2023-05-14T18:49:55;6.93;;;6.33;;
9819;SDS011;4949;48.482;9.206;2023-05-14T18:54:58;7.50;;;6.83;;
9819;SDS011;4949;48.482;9.206;2023-05-14T18:59:59;7.20;;;6.60;;
9819;SDS011;4949;48.482;9.206;2023-05-14T19:05:07;9.30;;;8.53;;
9819;SDS011;4949;48.482;9.206;2023-05-14T19:10:09;6.60;;;6.00;;
9819;SDS011;4949;48.482;9.206;2023-05-14T19:15:10;7.43;;;6.73;;
9819;SDS011;4949;48.482;9.206;2023-05-14T19:20:11;7.83;;;7.13;;
9819;SDS011;4949;48.482;9.206;2023-05-14T19:25:12;7.97;;;7.20;;
9819;SDS011;4949;48.482;9.206;2023-05-14T19:30:15;7.83;;;7.13;;
9819;SDS011;4949;48.482;9.206;2023-05-14T19:35:19;7.30;;;6.70;;
9819;SDS011;4949;48.482;9.206;2023-05-14T19:40:23;7.60;;;7.03;;
9819;SDS011;4949;48.482;9.206;2023-05-14T19:45:26;7.40;;;6.70;;
9819;SDS011;4949;48.482;9.206;2023-05-14T19:50:29;10.27;;;9.33;;
9819;SDS011;4949;48.482;9.206;2023-05-14T19:55:30;8.93;;;8.13;;
9819;SDS011;4949;48.482;9.206;2023-05-14T20:00:34;10.80;;;9.80;;
9819;SDS011;4949;48.482;9.206;2023-05-14T20:05:38;8.90;;;8.10;;
9819;SDS011;4949;48.482;9.206;2023-05-14T20:10:39;8.27;;;7.50;;
9819;SDS011;4949;48.482;9.206;2023-05-14T20:15:40;8.37;;;7.57;;
9819;SDS011;4949;48.482;9.206;2023-05-14T20:20:42;7.87;;;7.17;;
9819;SDS011;4949;48.482;9.206;2023-05-14T20:25:42;8.23;;;7.40;;
9819;SDS011;4949;48.482;9.206;2023-05-14T20:30:43;7.90;;;7.10;;
9819;SDS011;4949;48.482;9.206;2023-05-14T20:35:45;12.63;;;11.33;;
9819;SDS011;4949;48.482;9.206;2023-05-14T20:40:47;9.40;;;8.53;;
9819;SDS011;4949;48.482;9.206;2023-05-14T20:45:51;9.23;;;8.33;;
9819;SDS011;4949;48.482;9.206;2023-05-14T20:50:55;8.87;;;8.07;;
9819;SDS011;4949;48.482;9.206;2023-05-14T20:55:56;11.90;;;10.80;;
9819;SDS011;4949;48.482;9.206;2023-05-14T21:01:00;8.83;;;8.10;;
9819;SDS011;4949;48.482;9.206;2023-05-14T21:06:02;8.83;;;8.03;;
9819;SDS011;4949;48.482;9.206;2023-05-14T21:11:05;7.73;;;7.03;;
9819;SDS011;4949;48.482;9.206;2023-05-14T21:16:08;8.33;;;7.50;;
9819;SDS011;4949;48.482;9.206;2023-05-14T21:21:11;10.60;;;9.60;;
9819;SDS011;4949;48.482;9.206;2023-05-14T21:26:12;8.27;;;7.57;;
9819;SDS011;4949;48.482;9.206;2023-05-14T21:31:13;8.23;;;7.53;;
9819;SDS011;4949;48.482;9.206;2023-05-14T21:36:16;8.07;;;7.30;;
9819;SDS011;4949;48.482;9.206;2023-05-14T21:41:17;9.20;;;8.30;;
9819;SDS011;4949;48.482;9.206;2023-05-14T21:46:18;7.80;;;7.20;;
9819;SDS011;4949;48.482;9.206;2023-05-14T21:51:18;7.83;;;7.23;;
9819;SDS011;4949;48.482;9.206;2023-05-14T21:56:21;7.17;;;6.57;;
9819;SDS011;4949;48.482;9.206;2023-05-14T22:01:23;7.63;;;6.87;;
9819;SDS011;4949;48.482;9.206;2023-05-14T22:06:26;7.27;;;6.67;;
9819;SDS011;4949;48.482;9.206;2023-05-14T22:11:29;7.83;;;7.13;;
9819;SDS011;4949;48.482;9.206;2023-05-14T22:16:30;7.80;;;7.20;;
9819;SDS011;4949;48.482;9.206;2023-05-14T22:21:31;6.87;;;6.27;;
9819;SDS011;4949;48.482;9.206;2023-05-14T22:26:33;7.40;;;6.70;;
9819;SDS011;4949;48.482;9.206;2023-05-14T22:31:34;6.80;;;6.20;;
9819;SDS011;4949;48.482;9.206;2023-05-14T22:36:37;7.03;;;6.33;;
9819;SDS011;4949;48.482;9.206;2023-05-14T22:41:42;7.83;;;7.10;;
9819;SDS011;4949;48.482;9.206;2023-05-14T22:46:43;7.97;;;7.30;;
9819;SDS011;4949;48.482;9.206;2023-05-14T22:51:44;8.43;;;7.63;;
9819;SDS011;4949;48.482;9.206;2023-05-14T22:56:47;7.93;;;7.13;;
9819;SDS011;4949;48.482;9.206;2023-05-14T23:01:52;7.50;;;6.90;;
9819;SDS011;4949;48.482;9.206;2023-05-14T23:06:53;8.20;;;7.50;;
9819;SDS011;4949;48.482;9.206;2023-05-14T23:11:54;8.13;;;7.37;;
9819;SDS011;4949;48.482;9.206;2023-05-14T23:16:56;7.33;;;6.63;;
9819;SDS011;4949;48.482;9.206;2023-05-14T23:21:59;7.27;;;6.57;;
9819;SDS011;4949;48.482;9.206;2023-05-14T23:27:03;7.27;;;6.60;;
9819;SDS011;4949;48.482;9.206;2023-05-14T23:32:04;8.50;;;7.60;;
9819;SDS011;4949;48.482;9.206;2023-05-14T23:37:07;7.67;;;6.97;;
9819;SDS011;4949;48.482;9.206;2023-05-14T23:42:11;8.17;;;7.47;;
9819;SDS011;4949;48.482;9.206;2023-05-14T23:47:11;6.97;;;6.37;;
9819;SDS011;4949;48.482;9.206;2023-05-14T23:52:14;6.23;;;5.73;;
9819;SDS011;4949;48.482;9.206;2023-05-14T23:57:17;8.40;;;6.30;;
